Saginaw, Washington
Current Conditions -  °F | °C
As of 1:53 PM on Wednesday 26 Nov 2014 (Local Time) from KSHN Reporting Station
Haze Haze  
Wind Chill: 55°   Ceiling: 1700
Heat Index: 55°   Visibility: 6mi
Dew Point: 54°   Wind: 0mph
Humidity: 96%   Direction: NA
Pressure: 30.03"   Gusts: NA
Location:  46.9859°N, 123.385°W
Report Text: KSHN 262153Z AUTO 00000KT 6SM BR FEW008 BKN017 OVC028 13/12 A3003 RMK AO2 SLP169 T01280122
Loading
Personal Weather Stations






























Interactive Weather Map New forecast layout! Learn more

10-Day Weather Forecast

Advertisements
Track Severe Weather on mobile